sensor_id;sensor_type;location;lat;lon;timestamp;P1;durP1;ratioP1;P2;durP2;ratioP2
22543;SDS011;11438;52.044;8.716;2023-02-01T00:01:37;9.13;;;2.17;;
22543;SDS011;11438;52.044;8.716;2023-02-01T00:04:02;10.80;;;2.20;;
22543;SDS011;11438;52.044;8.716;2023-02-01T00:06:28;12.57;;;2.83;;
22543;SDS011;11438;52.044;8.716;2023-02-01T00:08:53;10.73;;;2.17;;
22543;SDS011;11438;52.044;8.716;2023-02-01T00:11:20;10.50;;;2.13;;
22543;SDS011;11438;52.044;8.716;2023-02-01T00:13:46;10.63;;;2.43;;
22543;SDS011;11438;52.044;8.716;2023-02-01T00:16:13;10.77;;;2.33;;
22543;SDS011;11438;52.044;8.716;2023-02-01T00:18:41;12.77;;;2.20;;
22543;SDS011;11438;52.044;8.716;2023-02-01T00:21:07;10.63;;;2.20;;
22543;SDS011;11438;52.044;8.716;2023-02-01T00:23:33;9.77;;;2.20;;
22543;SDS011;11438;52.044;8.716;2023-02-01T00:26:00;9.33;;;2.47;;
22543;SDS011;11438;52.044;8.716;2023-02-01T00:28:26;7.30;;;2.00;;
22543;SDS011;11438;52.044;8.716;2023-02-01T00:30:56;11.47;;;2.63;;
22543;SDS011;11438;52.044;8.716;2023-02-01T00:39:22;12.07;;;1.70;;
22543;SDS011;11438;52.044;8.716;2023-02-01T00:41:48;13.67;;;2.33;;
22543;SDS011;11438;52.044;8.716;2023-02-01T00:44:13;11.93;;;2.07;;
22543;SDS011;11438;52.044;8.716;2023-02-01T00:46:39;7.17;;;1.90;;
22543;SDS011;11438;52.044;8.716;2023-02-01T00:49:04;8.63;;;2.10;;
22543;SDS011;11438;52.044;8.716;2023-02-01T00:51:32;9.63;;;2.23;;
22543;SDS011;11438;52.044;8.716;2023-02-01T00:53:57;10.37;;;2.20;;
22543;SDS011;11438;52.044;8.716;2023-02-01T00:56:23;11.53;;;2.40;;
22543;SDS011;11438;52.044;8.716;2023-02-01T00:58:48;8.50;;;1.90;;
22543;SDS011;11438;52.044;8.716;2023-02-01T01:03:42;7.70;;;2.13;;
22543;SDS011;11438;52.044;8.716;2023-02-01T01:06:11;12.10;;;2.30;;
22543;SDS011;11438;52.044;8.716;2023-02-01T01:08:39;7.70;;;2.00;;
22543;SDS011;11438;52.044;8.716;2023-02-01T01:11:16;11.43;;;1.93;;
22543;SDS011;11438;52.044;8.716;2023-02-01T01:13:45;10.03;;;2.53;;
22543;SDS011;11438;52.044;8.716;2023-02-01T01:16:12;18.33;;;2.60;;
22543;SDS011;11438;52.044;8.716;2023-02-01T01:18:38;8.87;;;2.00;;
22543;SDS011;11438;52.044;8.716;2023-02-01T01:21:04;9.17;;;2.20;;
22543;SDS011;11438;52.044;8.716;2023-02-01T01:23:31;18.37;;;2.67;;
22543;SDS011;11438;52.044;8.716;2023-02-01T01:25:57;10.63;;;2.10;;
22543;SDS011;11438;52.044;8.716;2023-02-01T01:28:22;10.90;;;2.20;;
22543;SDS011;11438;52.044;8.716;2023-02-01T01:30:48;8.53;;;1.70;;
22543;SDS011;11438;52.044;8.716;2023-02-01T01:33:13;10.27;;;2.50;;
22543;SDS011;11438;52.044;8.716;2023-02-01T01:35:39;15.30;;;2.50;;
22543;SDS011;11438;52.044;8.716;2023-02-01T01:38:04;12.00;;;2.60;;
22543;SDS011;11438;52.044;8.716;2023-02-01T01:40:30;9.50;;;2.00;;
22543;SDS011;11438;52.044;8.716;2023-02-01T01:42:56;12.63;;;2.70;;
22543;SDS011;11438;52.044;8.716;2023-02-01T01:47:59;10.10;;;2.47;;
22543;SDS011;11438;52.044;8.716;2023-02-01T01:53:13;7.97;;;2.43;;
22543;SDS011;11438;52.044;8.716;2023-02-01T01:55:43;17.53;;;3.03;;
22543;SDS011;11438;52.044;8.716;2023-02-01T01:58:15;11.13;;;2.70;;
22543;SDS011;11438;52.044;8.716;2023-02-01T02:00:44;13.17;;;2.53;;
22543;SDS011;11438;52.044;8.716;2023-02-01T02:03:15;8.40;;;2.80;;
22543;SDS011;11438;52.044;8.716;2023-02-01T02:05:47;11.77;;;2.63;;
22543;SDS011;11438;52.044;8.716;2023-02-01T02:08:14;11.03;;;2.30;;
22543;SDS011;11438;52.044;8.716;2023-02-01T02:10:40;13.17;;;2.70;;
22543;SDS011;11438;52.044;8.716;2023-02-01T02:13:24;11.87;;;2.93;;
22543;SDS011;11438;52.044;8.716;2023-02-01T02:21:54;10.60;;;2.30;;
22543;SDS011;11438;52.044;8.716;2023-02-01T02:24:43;13.17;;;2.80;;
22543;SDS011;11438;52.044;8.716;2023-02-01T02:30:20;14.37;;;2.80;;
22543;SDS011;11438;52.044;8.716;2023-02-01T02:36:03;12.93;;;2.80;;
22543;SDS011;11438;52.044;8.716;2023-02-01T02:38:52;14.03;;;3.27;;
22543;SDS011;11438;52.044;8.716;2023-02-01T02:44:49;15.03;;;3.43;;
22543;SDS011;11438;52.044;8.716;2023-02-01T02:47:50;10.10;;;2.33;;
22543;SDS011;11438;52.044;8.716;2023-02-01T02:53:31;11.07;;;2.77;;
22543;SDS011;11438;52.044;8.716;2023-02-01T02:56:20;14.60;;;2.63;;
22543;SDS011;11438;52.044;8.716;2023-02-01T02:59:06;12.83;;;2.50;;
22543;SDS011;11438;52.044;8.716;2023-02-01T03:01:52;11.63;;;2.80;;
22543;SDS011;11438;52.044;8.716;2023-02-01T03:04:37;17.13;;;3.13;;
22543;SDS011;11438;52.044;8.716;2023-02-01T03:07:14;14.70;;;3.07;;
22543;SDS011;11438;52.044;8.716;2023-02-01T03:10:01;12.93;;;2.53;;
22543;SDS011;11438;52.044;8.716;2023-02-01T03:12:30;10.27;;;2.43;;
22543;SDS011;11438;52.044;8.716;2023-02-01T03:15:21;8.37;;;2.30;;
22543;SDS011;11438;52.044;8.716;2023-02-01T03:17:58;11.13;;;2.30;;
22543;SDS011;11438;52.044;8.716;2023-02-01T03:20:27;12.83;;;3.13;;
22543;SDS011;11438;52.044;8.716;2023-02-01T03:22:56;20.43;;;3.23;;
22543;SDS011;11438;52.044;8.716;2023-02-01T03:25:25;13.57;;;2.77;;
22543;SDS011;11438;52.044;8.716;2023-02-01T03:30:26;12.93;;;2.80;;
22543;SDS011;11438;52.044;8.716;2023-02-01T03:32:55;9.17;;;2.20;;
22543;SDS011;11438;52.044;8.716;2023-02-01T03:35:26;13.87;;;2.50;;
22543;SDS011;11438;52.044;8.716;2023-02-01T03:37:56;14.93;;;3.03;;
22543;SDS011;11438;52.044;8.716;2023-02-01T03:40:43;10.30;;;2.43;;
22543;SDS011;11438;52.044;8.716;2023-02-01T03:43:14;10.73;;;2.63;;
22543;SDS011;11438;52.044;8.716;2023-02-01T03:45:44;11.60;;;2.30;;
22543;SDS011;11438;52.044;8.716;2023-02-01T03:48:14;13.53;;;2.70;;
22543;SDS011;11438;52.044;8.716;2023-02-01T03:50:43;12.77;;;2.40;;
22543;SDS011;11438;52.044;8.716;2023-02-01T03:53:16;15.40;;;2.47;;
22543;SDS011;11438;52.044;8.716;2023-02-01T03:55:45;12.33;;;2.10;;
22543;SDS011;11438;52.044;8.716;2023-02-01T03:58:12;15.30;;;2.87;;
22543;SDS011;11438;52.044;8.716;2023-02-01T04:00:58;14.73;;;2.77;;
22543;SDS011;11438;52.044;8.716;2023-02-01T04:03:24;14.60;;;2.80;;
22543;SDS011;11438;52.044;8.716;2023-02-01T04:05:52;11.87;;;2.47;;
22543;SDS011;11438;52.044;8.716;2023-02-01T04:08:19;13.67;;;2.60;;
22543;SDS011;11438;52.044;8.716;2023-02-01T04:10:45;12.87;;;2.33;;
22543;SDS011;11438;52.044;8.716;2023-02-01T04:13:10;10.83;;;2.47;;
22543;SDS011;11438;52.044;8.716;2023-02-01T04:15:36;13.53;;;2.60;;
22543;SDS011;11438;52.044;8.716;2023-02-01T04:18:02;13.70;;;2.60;;
22543;SDS011;11438;52.044;8.716;2023-02-01T04:20:27;9.90;;;2.40;;
22543;SDS011;11438;52.044;8.716;2023-02-01T04:22:53;21.33;;;3.63;;
22543;SDS011;11438;52.044;8.716;2023-02-01T04:25:19;10.90;;;2.17;;
22543;SDS011;11438;52.044;8.716;2023-02-01T04:27:44;12.90;;;2.40;;
22543;SDS011;11438;52.044;8.716;2023-02-01T04:30:10;14.77;;;2.80;;
22543;SDS011;11438;52.044;8.716;2023-02-01T04:32:37;13.03;;;2.40;;
22543;SDS011;11438;52.044;8.716;2023-02-01T04:35:03;10.27;;;2.67;;
22543;SDS011;11438;52.044;8.716;2023-02-01T04:37:28;16.13;;;2.70;;
22543;SDS011;11438;52.044;8.716;2023-02-01T04:39:54;15.63;;;2.50;;
22543;SDS011;11438;52.044;8.716;2023-02-01T04:42:20;8.53;;;2.00;;
22543;SDS011;11438;52.044;8.716;2023-02-01T04:44:46;16.50;;;3.10;;
22543;SDS011;11438;52.044;8.716;2023-02-01T04:47:11;16.13;;;2.87;;
22543;SDS011;11438;52.044;8.716;2023-02-01T04:49:37;10.47;;;2.43;;
22543;SDS011;11438;52.044;8.716;2023-02-01T04:52:02;12.70;;;2.40;;
22543;SDS011;11438;52.044;8.716;2023-02-01T04:54:28;10.77;;;2.27;;
22543;SDS011;11438;52.044;8.716;2023-02-01T04:56:53;13.03;;;2.93;;
22543;SDS011;11438;52.044;8.716;2023-02-01T04:59:19;14.47;;;3.00;;
22543;SDS011;11438;52.044;8.716;2023-02-01T05:01:44;14.07;;;3.00;;
22543;SDS011;11438;52.044;8.716;2023-02-01T05:04:10;11.17;;;3.13;;
22543;SDS011;11438;52.044;8.716;2023-02-01T05:06:35;10.37;;;2.37;;
22543;SDS011;11438;52.044;8.716;2023-02-01T05:09:01;14.53;;;2.87;;
22543;SDS011;11438;52.044;8.716;2023-02-01T05:11:26;11.70;;;2.37;;
22543;SDS011;11438;52.044;8.716;2023-02-01T05:14:10;13.43;;;2.43;;
22543;SDS011;11438;52.044;8.716;2023-02-01T05:16:36;13.30;;;2.70;;
22543;SDS011;11438;52.044;8.716;2023-02-01T05:19:01;10.00;;;2.00;;
22543;SDS011;11438;52.044;8.716;2023-02-01T05:21:27;12.07;;;2.33;;
22543;SDS011;11438;52.044;8.716;2023-02-01T05:23:53;10.13;;;2.13;;
22543;SDS011;11438;52.044;8.716;2023-02-01T05:26:37;13.40;;;2.53;;
22543;SDS011;11438;52.044;8.716;2023-02-01T05:29:06;15.87;;;2.83;;
22543;SDS011;11438;52.044;8.716;2023-02-01T05:31:33;11.27;;;2.67;;
22543;SDS011;11438;52.044;8.716;2023-02-01T05:33:59;12.67;;;2.50;;
22543;SDS011;11438;52.044;8.716;2023-02-01T05:36:24;9.87;;;2.77;;
22543;SDS011;11438;52.044;8.716;2023-02-01T05:38:50;10.43;;;2.33;;
22543;SDS011;11438;52.044;8.716;2023-02-01T05:41:16;15.10;;;2.77;;
22543;SDS011;11438;52.044;8.716;2023-02-01T05:43:41;11.93;;;2.60;;
22543;SDS011;11438;52.044;8.716;2023-02-01T05:46:07;8.97;;;2.33;;
22543;SDS011;11438;52.044;8.716;2023-02-01T05:48:35;12.60;;;2.40;;
22543;SDS011;11438;52.044;8.716;2023-02-01T05:51:01;12.60;;;2.30;;
22543;SDS011;11438;52.044;8.716;2023-02-01T05:53:26;10.73;;;2.53;;
22543;SDS011;11438;52.044;8.716;2023-02-01T05:55:52;10.37;;;2.47;;
22543;SDS011;11438;52.044;8.716;2023-02-01T05:58:17;8.60;;;2.07;;
22543;SDS011;11438;52.044;8.716;2023-02-01T06:00:43;14.87;;;3.00;;
22543;SDS011;11438;52.044;8.716;2023-02-01T06:03:08;13.27;;;2.90;;
22543;SDS011;11438;52.044;8.716;2023-02-01T06:05:34;16.60;;;3.30;;
22543;SDS011;11438;52.044;8.716;2023-02-01T06:07:59;12.43;;;3.23;;
22543;SDS011;11438;52.044;8.716;2023-02-01T06:10:25;13.90;;;2.83;;
22543;SDS011;11438;52.044;8.716;2023-02-01T06:12:50;15.83;;;3.20;;
22543;SDS011;11438;52.044;8.716;2023-02-01T06:15:16;10.97;;;2.17;;
22543;SDS011;11438;52.044;8.716;2023-02-01T06:17:42;17.50;;;3.03;;
22543;SDS011;11438;52.044;8.716;2023-02-01T06:20:09;14.67;;;3.47;;
22543;SDS011;11438;52.044;8.716;2023-02-01T06:22:35;20.27;;;3.37;;
22543;SDS011;11438;52.044;8.716;2023-02-01T06:25:04;11.20;;;2.50;;
22543;SDS011;11438;52.044;8.716;2023-02-01T06:27:31;9.10;;;2.77;;
22543;SDS011;11438;52.044;8.716;2023-02-01T06:29:57;16.20;;;3.37;;
22543;SDS011;11438;52.044;8.716;2023-02-01T06:32:23;18.27;;;2.77;;
22543;SDS011;11438;52.044;8.716;2023-02-01T06:34:49;14.33;;;2.90;;
22543;SDS011;11438;52.044;8.716;2023-02-01T06:37:15;15.03;;;3.17;;
22543;SDS011;11438;52.044;8.716;2023-02-01T06:39:40;13.93;;;2.77;;
22543;SDS011;11438;52.044;8.716;2023-02-01T06:42:06;9.80;;;2.77;;
22543;SDS011;11438;52.044;8.716;2023-02-01T06:44:31;13.33;;;2.60;;
22543;SDS011;11438;52.044;8.716;2023-02-01T06:46:57;13.67;;;2.70;;
22543;SDS011;11438;52.044;8.716;2023-02-01T06:49:22;13.00;;;2.63;;
22543;SDS011;11438;52.044;8.716;2023-02-01T06:51:48;18.17;;;3.10;;
22543;SDS011;11438;52.044;8.716;2023-02-01T06:54:13;10.90;;;2.50;;
22543;SDS011;11438;52.044;8.716;2023-02-01T06:56:39;14.83;;;3.57;;
22543;SDS011;11438;52.044;8.716;2023-02-01T06:59:05;10.87;;;2.57;;
22543;SDS011;11438;52.044;8.716;2023-02-01T07:01:31;11.07;;;2.87;;
22543;SDS011;11438;52.044;8.716;2023-02-01T07:03:57;14.57;;;3.27;;
22543;SDS011;11438;52.044;8.716;2023-02-01T07:06:23;12.10;;;3.10;;
22543;SDS011;11438;52.044;8.716;2023-02-01T07:08:48;14.17;;;2.73;;
22543;SDS011;11438;52.044;8.716;2023-02-01T07:11:14;12.33;;;2.97;;
22543;SDS011;11438;52.044;8.716;2023-02-01T07:13:40;12.17;;;2.60;;
22543;SDS011;11438;52.044;8.716;2023-02-01T07:16:06;12.07;;;2.63;;
22543;SDS011;11438;52.044;8.716;2023-02-01T07:18:36;16.00;;;2.83;;
22543;SDS011;11438;52.044;8.716;2023-02-01T07:21:02;13.37;;;2.93;;
22543;SDS011;11438;52.044;8.716;2023-02-01T07:23:28;14.27;;;2.53;;
22543;SDS011;11438;52.044;8.716;2023-02-01T07:25:54;12.17;;;2.83;;
22543;SDS011;11438;52.044;8.716;2023-02-01T07:28:21;9.03;;;2.30;;
22543;SDS011;11438;52.044;8.716;2023-02-01T07:30:47;14.93;;;2.37;;
22543;SDS011;11438;52.044;8.716;2023-02-01T07:33:19;16.93;;;3.07;;
22543;SDS011;11438;52.044;8.716;2023-02-01T07:35:47;13.47;;;2.77;;
22543;SDS011;11438;52.044;8.716;2023-02-01T07:38:13;19.50;;;3.33;;
22543;SDS011;11438;52.044;8.716;2023-02-01T07:40:38;11.20;;;2.77;;
22543;SDS011;11438;52.044;8.716;2023-02-01T07:43:04;11.07;;;2.47;;
22543;SDS011;11438;52.044;8.716;2023-02-01T07:45:31;11.57;;;2.70;;
22543;SDS011;11438;52.044;8.716;2023-02-01T07:47:56;14.10;;;2.70;;
22543;SDS011;11438;52.044;8.716;2023-02-01T07:50:22;9.70;;;2.37;;
22543;SDS011;11438;52.044;8.716;2023-02-01T07:52:47;14.53;;;3.07;;
22543;SDS011;11438;52.044;8.716;2023-02-01T07:55:13;13.00;;;2.70;;
22543;SDS011;11438;52.044;8.716;2023-02-01T07:57:38;14.17;;;2.43;;
22543;SDS011;11438;52.044;8.716;2023-02-01T08:00:04;9.00;;;1.97;;
22543;SDS011;11438;52.044;8.716;2023-02-01T08:02:49;7.93;;;1.70;;
22543;SDS011;11438;52.044;8.716;2023-02-01T08:05:14;11.40;;;2.40;;
22543;SDS011;11438;52.044;8.716;2023-02-01T08:07:40;9.50;;;2.00;;
22543;SDS011;11438;52.044;8.716;2023-02-01T08:10:05;11.23;;;2.17;;
22543;SDS011;11438;52.044;8.716;2023-02-01T08:12:35;12.23;;;2.70;;
22543;SDS011;11438;52.044;8.716;2023-02-01T08:15:01;11.73;;;2.73;;
22543;SDS011;11438;52.044;8.716;2023-02-01T08:17:27;9.83;;;2.83;;
22543;SDS011;11438;52.044;8.716;2023-02-01T08:19:54;10.10;;;2.50;;
22543;SDS011;11438;52.044;8.716;2023-02-01T08:22:19;11.60;;;2.40;;
22543;SDS011;11438;52.044;8.716;2023-02-01T08:24:47;16.23;;;2.87;;
22543;SDS011;11438;52.044;8.716;2023-02-01T08:27:13;13.70;;;2.83;;
22543;SDS011;11438;52.044;8.716;2023-02-01T08:29:39;16.13;;;2.67;;
22543;SDS011;11438;52.044;8.716;2023-02-01T08:32:04;11.53;;;2.50;;
22543;SDS011;11438;52.044;8.716;2023-02-01T08:34:30;14.37;;;2.83;;
22543;SDS011;11438;52.044;8.716;2023-02-01T08:36:55;14.93;;;3.10;;
22543;SDS011;11438;52.044;8.716;2023-02-01T08:39:25;11.20;;;2.43;;
22543;SDS011;11438;52.044;8.716;2023-02-01T08:41:51;15.83;;;2.90;;
22543;SDS011;11438;52.044;8.716;2023-02-01T08:44:35;13.93;;;2.53;;
22543;SDS011;11438;52.044;8.716;2023-02-01T08:47:01;11.63;;;2.77;;
22543;SDS011;11438;52.044;8.716;2023-02-01T08:49:28;13.27;;;2.47;;
22543;SDS011;11438;52.044;8.716;2023-02-01T08:51:53;14.23;;;2.27;;
22543;SDS011;11438;52.044;8.716;2023-02-01T08:54:20;12.70;;;2.77;;
22543;SDS011;11438;52.044;8.716;2023-02-01T08:56:46;12.67;;;2.87;;
22543;SDS011;11438;52.044;8.716;2023-02-01T08:59:11;11.00;;;2.60;;
22543;SDS011;11438;52.044;8.716;2023-02-01T09:01:37;10.20;;;2.07;;
22543;SDS011;11438;52.044;8.716;2023-02-01T09:04:02;16.10;;;3.30;;
22543;SDS011;11438;52.044;8.716;2023-02-01T09:06:27;13.67;;;3.50;;
22543;SDS011;11438;52.044;8.716;2023-02-01T09:08:53;13.30;;;2.43;;
22543;SDS011;11438;52.044;8.716;2023-02-01T09:11:18;14.63;;;2.42;;
22543;SDS011;11438;52.044;8.716;2023-02-01T09:13:44;17.93;;;2.97;;
22543;SDS011;11438;52.044;8.716;2023-02-01T09:16:11;13.43;;;2.47;;
22543;SDS011;11438;52.044;8.716;2023-02-01T09:18:37;11.37;;;2.37;;
22543;SDS011;11438;52.044;8.716;2023-02-01T09:21:06;9.13;;;2.47;;
22543;SDS011;11438;52.044;8.716;2023-02-01T09:23:32;13.07;;;2.70;;
22543;SDS011;11438;52.044;8.716;2023-02-01T09:25:59;11.27;;;2.80;;
22543;SDS011;11438;52.044;8.716;2023-02-01T09:28:25;13.93;;;2.63;;
22543;SDS011;11438;52.044;8.716;2023-02-01T09:30:54;12.97;;;2.67;;
22543;SDS011;11438;52.044;8.716;2023-02-01T09:33:24;14.85;;;3.35;;
22543;SDS011;11438;52.044;8.716;2023-02-01T09:35:58;8.53;;;2.27;;
22543;SDS011;11438;52.044;8.716;2023-02-01T09:38:28;14.30;;;3.15;;
22543;SDS011;11438;52.044;8.716;2023-02-01T09:40:55;11.47;;;2.53;;
22543;SDS011;11438;52.044;8.716;2023-02-01T09:43:24;15.07;;;2.57;;
22543;SDS011;11438;52.044;8.716;2023-02-01T09:48:32;12.87;;;2.60;;
22543;SDS011;11438;52.044;8.716;2023-02-01T09:51:02;9.00;;;2.50;;
22543;SDS011;11438;52.044;8.716;2023-02-01T09:53:38;8.33;;;2.23;;
22543;SDS011;11438;52.044;8.716;2023-02-01T09:56:10;10.50;;;2.28;;
22543;SDS011;11438;52.044;8.716;2023-02-01T09:58:41;5.85;;;1.73;;
22543;SDS011;11438;52.044;8.716;2023-02-01T10:01:15;8.60;;;2.00;;
22543;SDS011;11438;52.044;8.716;2023-02-01T10:03:44;11.17;;;3.03;;
22543;SDS011;11438;52.044;8.716;2023-02-01T10:06:23;11.67;;;2.93;;
22543;SDS011;11438;52.044;8.716;2023-02-01T10:11:31;10.60;;;2.33;;
22543;SDS011;11438;52.044;8.716;2023-02-01T10:14:59;14.63;;;2.60;;
22543;SDS011;11438;52.044;8.716;2023-02-01T10:17:18;12.73;;;2.57;;
22543;SDS011;11438;52.044;8.716;2023-02-01T10:20:07;13.05;;;2.35;;
22543;SDS011;11438;52.044;8.716;2023-02-01T10:22:45;13.57;;;2.30;;
22543;SDS011;11438;52.044;8.716;2023-02-01T10:27:48;11.52;;;2.30;;
22543;SDS011;11438;52.044;8.716;2023-02-01T10:30:24;13.00;;;2.28;;
22543;SDS011;11438;52.044;8.716;2023-02-01T10:32:57;14.37;;;2.40;;
22543;SDS011;11438;52.044;8.716;2023-02-01T10:35:46;11.25;;;2.35;;
22543;SDS011;11438;52.044;8.716;2023-02-01T10:38:25;11.17;;;2.47;;
22543;SDS011;11438;52.044;8.716;2023-02-01T10:40:53;10.68;;;2.50;;
22543;SDS011;11438;52.044;8.716;2023-02-01T10:43:21;9.27;;;2.22;;
22543;SDS011;11438;52.044;8.716;2023-02-01T10:45:47;12.27;;;2.60;;
22543;SDS011;11438;52.044;8.716;2023-02-01T10:48:13;14.05;;;2.45;;
22543;SDS011;11438;52.044;8.716;2023-02-01T10:50:57;15.23;;;2.78;;
22543;SDS011;11438;52.044;8.716;2023-02-01T10:53:25;12.82;;;2.58;;
22543;SDS011;11438;52.044;8.716;2023-02-01T10:56:08;11.50;;;2.50;;
22543;SDS011;11438;52.044;8.716;2023-02-01T10:58:36;11.77;;;2.40;;
22543;SDS011;11438;52.044;8.716;2023-02-01T11:01:20;8.98;;;2.15;;
22543;SDS011;11438;52.044;8.716;2023-02-01T11:03:57;13.35;;;2.70;;
22543;SDS011;11438;52.044;8.716;2023-02-01T11:06:32;12.73;;;2.60;;
22543;SDS011;11438;52.044;8.716;2023-02-01T11:09:08;17.05;;;2.78;;
22543;SDS011;11438;52.044;8.716;2023-02-01T11:16:47;14.95;;;2.58;;
22543;SDS011;11438;52.044;8.716;2023-02-01T11:19:15;9.77;;;2.28;;
22543;SDS011;11438;52.044;8.716;2023-02-01T11:21:41;10.55;;;2.30;;
22543;SDS011;11438;52.044;8.716;2023-02-01T11:24:13;9.88;;;2.22;;
22543;SDS011;11438;52.044;8.716;2023-02-01T11:26:54;8.57;;;2.30;;
22543;SDS011;11438;52.044;8.716;2023-02-01T11:29:21;11.80;;;2.87;;
22543;SDS011;11438;52.044;8.716;2023-02-01T11:31:53;13.23;;;2.77;;
22543;SDS011;11438;52.044;8.716;2023-02-01T11:34:22;11.50;;;2.10;;
22543;SDS011;11438;52.044;8.716;2023-02-01T11:36:53;15.68;;;2.88;;
22543;SDS011;11438;52.044;8.716;2023-02-01T11:39:30;12.70;;;2.60;;
22543;SDS011;11438;52.044;8.716;2023-02-01T11:42:19;8.95;;;2.15;;
22543;SDS011;11438;52.044;8.716;2023-02-01T11:44:45;10.63;;;2.33;;
22543;SDS011;11438;52.044;8.716;2023-02-01T11:47:22;11.15;;;2.25;;
22543;SDS011;11438;52.044;8.716;2023-02-01T11:49:52;14.77;;;2.23;;
22543;SDS011;11438;52.044;8.716;2023-02-01T12:14:06;9.75;;;2.28;;
22543;SDS011;11438;52.044;8.716;2023-02-01T12:20:18;12.80;;;2.75;;
22543;SDS011;11438;52.044;8.716;2023-02-01T12:23:12;8.75;;;2.38;;
22543;SDS011;11438;52.044;8.716;2023-02-01T12:29:37;8.77;;;2.20;;
22543;SDS011;11438;52.044;8.716;2023-02-01T12:40:47;9.13;;;2.07;;
22543;SDS011;11438;52.044;8.716;2023-02-01T12:43:36;12.10;;;2.33;;
22543;SDS011;11438;52.044;8.716;2023-02-01T12:46:09;7.87;;;2.37;;
22543;SDS011;11438;52.044;8.716;2023-02-01T12:51:38;7.80;;;2.03;;
22543;SDS011;11438;52.044;8.716;2023-02-01T12:54:11;10.53;;;2.70;;
22543;SDS011;11438;52.044;8.716;2023-02-01T12:56:57;9.73;;;2.03;;
22543;SDS011;11438;52.044;8.716;2023-02-01T13:04:59;7.63;;;2.00;;
22543;SDS011;11438;52.044;8.716;2023-02-01T13:07:30;9.23;;;1.70;;
22543;SDS011;11438;52.044;8.716;2023-02-01T13:13:19;5.07;;;1.93;;
22543;SDS011;11438;52.044;8.716;2023-02-01T13:18:52;5.73;;;2.33;;
22543;SDS011;11438;52.044;8.716;2023-02-01T13:21:25;9.33;;;2.30;;
22543;SDS011;11438;52.044;8.716;2023-02-01T13:23:53;11.50;;;2.03;;
22543;SDS011;11438;52.044;8.716;2023-02-01T13:26:19;9.30;;;2.57;;
22543;SDS011;11438;52.044;8.716;2023-02-01T13:28:56;9.53;;;2.90;;
22543;SDS011;11438;52.044;8.716;2023-02-01T13:31:42;10.47;;;2.63;;
22543;SDS011;11438;52.044;8.716;2023-02-01T13:37:18;9.73;;;2.77;;
22543;SDS011;11438;52.044;8.716;2023-02-01T13:43:11;6.87;;;2.07;;
22543;SDS011;11438;52.044;8.716;2023-02-01T13:45:46;8.30;;;2.37;;
22543;SDS011;11438;52.044;8.716;2023-02-01T13:48:18;6.20;;;2.03;;
22543;SDS011;11438;52.044;8.716;2023-02-01T13:50:49;8.40;;;2.10;;
22543;SDS011;11438;52.044;8.716;2023-02-01T13:53:18;10.97;;;2.53;;
22543;SDS011;11438;52.044;8.716;2023-02-01T13:55:58;10.15;;;2.40;;
22543;SDS011;11438;52.044;8.716;2023-02-01T14:04:02;8.20;;;2.33;;
22543;SDS011;11438;52.044;8.716;2023-02-01T14:11:48;9.07;;;2.20;;
22543;SDS011;11438;52.044;8.716;2023-02-01T14:17:29;9.47;;;2.03;;
22543;SDS011;11438;52.044;8.716;2023-02-01T14:19:36;7.20;;;2.07;;
22543;SDS011;11438;52.044;8.716;2023-02-01T14:24:39;11.02;;;1.98;;
22543;SDS011;11438;52.044;8.716;2023-02-01T14:29:38;6.73;;;2.07;;
22543;SDS011;11438;52.044;8.716;2023-02-01T14:32:07;7.67;;;1.57;;
22543;SDS011;11438;52.044;8.716;2023-02-01T14:55:41;6.10;;;0.90;;
22543;SDS011;11438;52.044;8.716;2023-02-01T15:00:58;2.67;;;0.60;;
22543;SDS011;11438;52.044;8.716;2023-02-01T15:03:45;3.10;;;0.70;;
22543;SDS011;11438;52.044;8.716;2023-02-01T15:06:22;4.10;;;0.97;;
22543;SDS011;11438;52.044;8.716;2023-02-01T15:08:52;4.83;;;0.73;;
22543;SDS011;11438;52.044;8.716;2023-02-01T15:11:21;2.30;;;0.70;;
22543;SDS011;11438;52.044;8.716;2023-02-01T15:13:47;4.47;;;0.93;;
22543;SDS011;11438;52.044;8.716;2023-02-01T15:16:19;5.47;;;1.00;;
22543;SDS011;11438;52.044;8.716;2023-02-01T15:18:46;6.07;;;1.53;;
22543;SDS011;11438;52.044;8.716;2023-02-01T15:21:17;5.03;;;0.93;;
22543;SDS011;11438;52.044;8.716;2023-02-01T15:23:44;7.73;;;1.33;;
22543;SDS011;11438;52.044;8.716;2023-02-01T15:26:23;5.23;;;1.40;;
22543;SDS011;11438;52.044;8.716;2023-02-01T15:28:53;5.33;;;1.60;;
22543;SDS011;11438;52.044;8.716;2023-02-01T15:31:34;7.47;;;1.77;;
22543;SDS011;11438;52.044;8.716;2023-02-01T15:34:02;4.00;;;1.80;;
22543;SDS011;11438;52.044;8.716;2023-02-01T15:36:28;5.93;;;1.33;;
22543;SDS011;11438;52.044;8.716;2023-02-01T15:41:45;6.93;;;1.20;;
22543;SDS011;11438;52.044;8.716;2023-02-01T15:44:18;6.40;;;1.40;;
22543;SDS011;11438;52.044;8.716;2023-02-01T15:46:47;3.70;;;1.20;;
22543;SDS011;11438;52.044;8.716;2023-02-01T15:49:25;8.97;;;1.60;;
22543;SDS011;11438;52.044;8.716;2023-02-01T15:51:56;8.93;;;1.83;;
22543;SDS011;11438;52.044;8.716;2023-02-01T15:54:27;6.13;;;1.40;;
22543;SDS011;11438;52.044;8.716;2023-02-01T15:56:58;8.57;;;1.40;;
22543;SDS011;11438;52.044;8.716;2023-02-01T15:59:30;7.53;;;1.47;;
22543;SDS011;11438;52.044;8.716;2023-02-01T16:02:02;5.47;;;1.70;;
22543;SDS011;11438;52.044;8.716;2023-02-01T16:04:28;9.27;;;1.90;;
22543;SDS011;11438;52.044;8.716;2023-02-01T16:07:01;9.43;;;1.83;;
22543;SDS011;11438;52.044;8.716;2023-02-01T16:09:36;11.50;;;1.83;;
22543;SDS011;11438;52.044;8.716;2023-02-01T16:12:19;12.17;;;1.90;;
22543;SDS011;11438;52.044;8.716;2023-02-01T16:14:58;6.13;;;1.73;;
22543;SDS011;11438;52.044;8.716;2023-02-01T16:17:24;9.07;;;2.10;;
22543;SDS011;11438;52.044;8.716;2023-02-01T16:19:49;7.80;;;1.63;;
22543;SDS011;11438;52.044;8.716;2023-02-01T16:22:15;6.07;;;1.70;;
22543;SDS011;11438;52.044;8.716;2023-02-01T16:24:40;8.87;;;2.20;;
22543;SDS011;11438;52.044;8.716;2023-02-01T16:27:06;8.33;;;1.73;;
22543;SDS011;11438;52.044;8.716;2023-02-01T16:29:32;8.40;;;2.23;;
22543;SDS011;11438;52.044;8.716;2023-02-01T16:31:58;12.07;;;2.77;;
22543;SDS011;11438;52.044;8.716;2023-02-01T16:34:24;10.67;;;2.40;;
22543;SDS011;11438;52.044;8.716;2023-02-01T16:36:50;13.63;;;2.47;;
22543;SDS011;11438;52.044;8.716;2023-02-01T16:39:17;9.07;;;1.97;;
22543;SDS011;11438;52.044;8.716;2023-02-01T16:41:43;5.97;;;1.43;;
22543;SDS011;11438;52.044;8.716;2023-02-01T16:44:10;3.23;;;1.23;;
22543;SDS011;11438;52.044;8.716;2023-02-01T16:46:38;7.20;;;1.73;;
22543;SDS011;11438;52.044;8.716;2023-02-01T16:49:05;7.23;;;2.03;;
22543;SDS011;11438;52.044;8.716;2023-02-01T16:51:46;15.33;;;2.77;;
22543;SDS011;11438;52.044;8.716;2023-02-01T16:54:19;11.73;;;2.27;;
22543;SDS011;11438;52.044;8.716;2023-02-01T16:56:45;9.17;;;2.00;;
22543;SDS011;11438;52.044;8.716;2023-02-01T16:59:11;9.77;;;2.00;;
22543;SDS011;11438;52.044;8.716;2023-02-01T17:01:38;7.33;;;2.00;;
22543;SDS011;11438;52.044;8.716;2023-02-01T17:04:05;10.37;;;1.90;;
22543;SDS011;11438;52.044;8.716;2023-02-01T17:06:31;8.17;;;1.97;;
22543;SDS011;11438;52.044;8.716;2023-02-01T17:09:01;12.07;;;2.13;;
22543;SDS011;11438;52.044;8.716;2023-02-01T17:11:28;6.93;;;1.70;;
22543;SDS011;11438;52.044;8.716;2023-02-01T17:13:59;10.83;;;2.30;;
22543;SDS011;11438;52.044;8.716;2023-02-01T17:16:34;11.07;;;2.10;;
22543;SDS011;11438;52.044;8.716;2023-02-01T17:19:03;10.13;;;2.50;;
22543;SDS011;11438;52.044;8.716;2023-02-01T17:21:40;11.13;;;2.10;;
22543;SDS011;11438;52.044;8.716;2023-02-01T17:24:09;16.10;;;2.50;;
22543;SDS011;11438;52.044;8.716;2023-02-01T17:26:39;8.90;;;2.20;;